sensor_id;sensor_type;location;lat;lon;timestamp;pressure;altitude;pressure_sealevel;temperature;humidity
66547;BME280;53400;50.364;14.874;2023-03-13T00:00:21;98121.63;;;4.58;100.00
66547;BME280;53400;50.364;14.874;2023-03-13T00:03:07;98120.19;;;4.55;100.00
66547;BME280;53400;50.364;14.874;2023-03-13T00:05:35;98120.69;;;5.07;100.00
66547;BME280;53400;50.364;14.874;2023-03-13T00:08:01;98120.66;;;4.71;100.00
66547;BME280;53400;50.364;14.874;2023-03-13T00:10:27;98122.16;;;4.67;100.00
66547;BME280;53400;50.364;14.874;2023-03-13T00:12:53;98120.16;;;4.80;100.00
66547;BME280;53400;50.364;14.874;2023-03-13T00:15:19;98117.22;;;5.07;100.00
66547;BME280;53400;50.364;14.874;2023-03-13T00:17:44;98122.38;;;5.02;100.00
66547;BME280;53400;50.364;14.874;2023-03-13T00:20:11;98109.63;;;5.11;100.00
66547;BME280;53400;50.364;14.874;2023-03-13T00:22:38;98106.16;;;5.10;100.00
66547;BME280;53400;50.364;14.874;2023-03-13T00:25:05;98094.38;;;5.06;100.00
66547;BME280;53400;50.364;14.874;2023-03-13T00:27:32;98099.97;;;4.98;100.00
66547;BME280;53400;50.364;14.874;2023-03-13T00:29:58;98097.31;;;4.98;100.00
66547;BME280;53400;50.364;14.874;2023-03-13T00:32:24;98093.63;;;5.17;100.00
66547;BME280;53400;50.364;14.874;2023-03-13T00:34:50;98088.19;;;5.12;100.00
66547;BME280;53400;50.364;14.874;2023-03-13T00:37:16;98087.06;;;5.20;100.00
66547;BME280;53400;50.364;14.874;2023-03-13T00:39:43;98089.34;;;5.16;100.00
66547;BME280;53400;50.364;14.874;2023-03-13T00:42:09;98083.44;;;5.14;100.00
66547;BME280;53400;50.364;14.874;2023-03-13T00:44:35;98089.59;;;5.15;100.00
66547;BME280;53400;50.364;14.874;2023-03-13T00:47:01;98081.91;;;5.06;100.00
66547;BME280;53400;50.364;14.874;2023-03-13T00:49:27;98086.47;;;5.18;100.00
66547;BME280;53400;50.364;14.874;2023-03-13T00:51:52;98085.47;;;5.00;100.00
66547;BME280;53400;50.364;14.874;2023-03-13T00:54:19;98077.84;;;5.04;100.00
66547;BME280;53400;50.364;14.874;2023-03-13T00:56:46;98087.28;;;5.18;100.00
66547;BME280;53400;50.364;14.874;2023-03-13T00:59:13;98084.47;;;5.32;100.00
66547;BME280;53400;50.364;14.874;2023-03-13T01:01:39;98084.47;;;5.32;100.00
66547;BME280;53400;50.364;14.874;2023-03-13T01:04:07;98091.19;;;5.16;100.00
66547;BME280;53400;50.364;14.874;2023-03-13T01:06:35;98089.28;;;5.04;100.00
66547;BME280;53400;50.364;14.874;2023-03-13T01:09:03;98089.63;;;5.08;100.00
66547;BME280;53400;50.364;14.874;2023-03-13T01:11:31;98084.41;;;5.20;100.00
66547;BME280;53400;50.364;14.874;2023-03-13T01:14:00;98079.84;;;5.09;100.00
66547;BME280;53400;50.364;14.874;2023-03-13T01:16:27;98086.47;;;5.18;100.00
66547;BME280;53400;50.364;14.874;2023-03-13T01:18:55;98093.69;;;5.11;100.00
66547;BME280;53400;50.364;14.874;2023-03-13T01:21:23;98086.13;;;5.44;100.00
66547;BME280;53400;50.364;14.874;2023-03-13T01:23:50;98088.63;;;5.58;100.00
66547;BME280;53400;50.364;14.874;2023-03-13T01:26:16;98084.94;;;4.73;100.00
66547;BME280;53400;50.364;14.874;2023-03-13T01:28:42;98088.72;;;4.84;100.00
66547;BME280;53400;50.364;14.874;2023-03-13T01:31:13;98083.16;;;4.49;100.00
66547;BME280;53400;50.364;14.874;2023-03-13T01:33:40;98087.91;;;4.40;100.00
66547;BME280;53400;50.364;14.874;2023-03-13T01:36:06;98075.50;;;4.16;100.00
66547;BME280;53400;50.364;14.874;2023-03-13T01:38:33;98076.63;;;4.01;100.00
66547;BME280;53400;50.364;14.874;2023-03-13T01:40:59;98067.84;;;4.26;100.00
66547;BME280;53400;50.364;14.874;2023-03-13T01:43:27;98065.91;;;4.14;100.00
66547;BME280;53400;50.364;14.874;2023-03-13T01:46:12;98071.38;;;4.20;100.00
66547;BME280;53400;50.364;14.874;2023-03-13T01:48:42;98074.94;;;4.07;100.00
66547;BME280;53400;50.364;14.874;2023-03-13T01:51:12;98060.25;;;4.11;100.00
66547;BME280;53400;50.364;14.874;2023-03-13T01:53:41;98051.09;;;4.07;100.00
66547;BME280;53400;50.364;14.874;2023-03-13T01:56:13;98055.41;;;4.01;100.00
66547;BME280;53400;50.364;14.874;2023-03-13T01:58:42;98055.81;;;4.05;100.00
66547;BME280;53400;50.364;14.874;2023-03-13T02:01:08;98046.97;;;3.86;100.00
66547;BME280;53400;50.364;14.874;2023-03-13T02:03:36;98041.09;;;3.84;100.00
66547;BME280;53400;50.364;14.874;2023-03-13T02:06:03;98033.31;;;3.89;100.00
66547;BME280;53400;50.364;14.874;2023-03-13T02:08:34;98034.78;;;3.85;100.00
66547;BME280;53400;50.364;14.874;2023-03-13T02:11:09;98030.72;;;4.26;100.00
66547;BME280;53400;50.364;14.874;2023-03-13T02:13:38;98034.59;;;4.30;100.00
66547;BME280;53400;50.364;14.874;2023-03-13T02:16:05;98032.59;;;4.62;100.00
66547;BME280;53400;50.364;14.874;2023-03-13T02:18:31;98021.63;;;4.58;100.00
66547;BME280;53400;50.364;14.874;2023-03-13T02:21:04;98030.03;;;4.55;100.00
66547;BME280;53400;50.364;14.874;2023-03-13T02:23:35;98038.31;;;4.66;100.00
66547;BME280;53400;50.364;14.874;2023-03-13T02:26:08;98043.25;;;5.11;100.00
66547;BME280;53400;50.364;14.874;2023-03-13T02:28:34;98036.47;;;4.85;100.00
66547;BME280;53400;50.364;14.874;2023-03-13T02:31:04;98046.91;;;4.61;100.00
66547;BME280;53400;50.364;14.874;2023-03-13T02:33:32;98045.19;;;4.30;100.00
66547;BME280;53400;50.364;14.874;2023-03-13T02:36:01;98042.03;;;3.96;100.00
66547;BME280;53400;50.364;14.874;2023-03-13T02:38:30;98044.50;;;3.91;100.00
66547;BME280;53400;50.364;14.874;2023-03-13T02:40:59;98041.34;;;4.01;100.00
66547;BME280;53400;50.364;14.874;2023-03-13T02:43:31;98046.94;;;4.18;100.00
66547;BME280;53400;50.364;14.874;2023-03-13T02:46:03;98042.13;;;4.51;100.00
66547;BME280;53400;50.364;14.874;2023-03-13T02:48:31;98044.72;;;4.14;100.00
66547;BME280;53400;50.364;14.874;2023-03-13T02:50:57;98042.88;;;4.15;100.00
66547;BME280;53400;50.364;14.874;2023-03-13T02:53:23;98047.56;;;4.13;100.00
66547;BME280;53400;50.364;14.874;2023-03-13T02:55:49;98039.09;;;4.29;100.00
66547;BME280;53400;50.364;14.874;2023-03-13T02:58:15;98041.28;;;4.32;100.00
66547;BME280;53400;50.364;14.874;2023-03-13T03:00:42;98040.66;;;4.12;100.00
66547;BME280;53400;50.364;14.874;2023-03-13T03:03:08;98040.00;;;4.17;100.00
66547;BME280;53400;50.364;14.874;2023-03-13T03:05:34;98038.66;;;4.32;100.00
66547;BME280;53400;50.364;14.874;2023-03-13T03:08:00;98021.25;;;4.18;100.00
66547;BME280;53400;50.364;14.874;2023-03-13T03:10:25;98026.81;;;3.85;100.00
66547;BME280;53400;50.364;14.874;2023-03-13T03:12:51;98033.59;;;4.06;100.00
66547;BME280;53400;50.364;14.874;2023-03-13T03:15:17;98039.88;;;3.80;100.00
66547;BME280;53400;50.364;14.874;2023-03-13T03:17:45;98032.44;;;3.70;100.00
66547;BME280;53400;50.364;14.874;2023-03-13T03:20:11;98031.41;;;3.71;100.00
66547;BME280;53400;50.364;14.874;2023-03-13T03:22:37;98018.69;;;3.80;100.00
66547;BME280;53400;50.364;14.874;2023-03-13T03:25:06;98027.13;;;3.70;100.00
66547;BME280;53400;50.364;14.874;2023-03-13T03:27:32;98020.41;;;3.99;100.00
66547;BME280;53400;50.364;14.874;2023-03-13T03:29:58;98023.78;;;4.06;100.00
66547;BME280;53400;50.364;14.874;2023-03-13T03:32:24;98010.88;;;3.66;100.00
66547;BME280;53400;50.364;14.874;2023-03-13T03:34:51;98010.69;;;3.86;100.00
66547;BME280;53400;50.364;14.874;2023-03-13T03:37:17;98009.81;;;3.99;100.00
66547;BME280;53400;50.364;14.874;2023-03-13T03:39:42;98007.31;;;3.79;100.00
66547;BME280;53400;50.364;14.874;2023-03-13T03:42:09;98008.47;;;3.83;100.00
66547;BME280;53400;50.364;14.874;2023-03-13T03:44:34;97999.91;;;3.88;100.00
66547;BME280;53400;50.364;14.874;2023-03-13T03:47:00;98008.59;;;3.95;100.00
66547;BME280;53400;50.364;14.874;2023-03-13T03:49:26;98005.19;;;3.63;100.00
66547;BME280;53400;50.364;14.874;2023-03-13T03:51:53;97999.19;;;3.49;100.00
66547;BME280;53400;50.364;14.874;2023-03-13T03:54:19;97998.53;;;3.54;100.00
66547;BME280;53400;50.364;14.874;2023-03-13T03:56:45;97994.53;;;3.44;100.00
66547;BME280;53400;50.364;14.874;2023-03-13T03:59:11;98006.75;;;3.45;100.00
66547;BME280;53400;50.364;14.874;2023-03-13T04:01:37;98003.22;;;3.52;100.00
66547;BME280;53400;50.364;14.874;2023-03-13T04:04:03;98003.03;;;3.53;100.00
66547;BME280;53400;50.364;14.874;2023-03-13T04:06:29;97996.91;;;3.53;100.00
66547;BME280;53400;50.364;14.874;2023-03-13T04:08:56;97996.41;;;3.69;100.00
66547;BME280;53400;50.364;14.874;2023-03-13T04:11:22;97995.16;;;3.72;100.00
66547;BME280;53400;50.364;14.874;2023-03-13T04:13:48;97995.91;;;3.79;100.00
66547;BME280;53400;50.364;14.874;2023-03-13T04:16:14;97990.66;;;3.97;100.00
66547;BME280;53400;50.364;14.874;2023-03-13T04:18:39;97989.56;;;4.05;100.00
66547;BME280;53400;50.364;14.874;2023-03-13T04:21:06;97978.91;;;4.11;100.00
66547;BME280;53400;50.364;14.874;2023-03-13T04:23:32;97981.63;;;4.05;100.00
66547;BME280;53400;50.364;14.874;2023-03-13T04:25:59;97982.25;;;4.00;100.00
66547;BME280;53400;50.364;14.874;2023-03-13T04:28:25;97975.41;;;3.42;100.00
66547;BME280;53400;50.364;14.874;2023-03-13T04:30:51;97967.56;;;3.29;100.00
66547;BME280;53400;50.364;14.874;2023-03-13T04:33:21;97967.28;;;3.37;100.00
66547;BME280;53400;50.364;14.874;2023-03-13T04:35:47;97965.19;;;3.46;100.00
66547;BME280;53400;50.364;14.874;2023-03-13T04:38:13;97956.28;;;3.40;100.00
66547;BME280;53400;50.364;14.874;2023-03-13T04:40:39;97955.69;;;3.38;100.00
66547;BME280;53400;50.364;14.874;2023-03-13T04:43:06;97952.75;;;3.47;100.00
66547;BME280;53400;50.364;14.874;2023-03-13T04:45:32;97955.22;;;3.48;100.00
66547;BME280;53400;50.364;14.874;2023-03-13T04:47:58;97956.75;;;3.56;100.00
66547;BME280;53400;50.364;14.874;2023-03-13T04:50:24;97959.94;;;3.64;100.00
66547;BME280;53400;50.364;14.874;2023-03-13T04:52:50;97954.47;;;3.66;100.00
66547;BME280;53400;50.364;14.874;2023-03-13T04:55:16;97948.16;;;3.85;100.00
66547;BME280;53400;50.364;14.874;2023-03-13T04:57:41;97951.72;;;4.16;100.00
66547;BME280;53400;50.364;14.874;2023-03-13T05:00:10;97957.03;;;4.16;100.00
66547;BME280;53400;50.364;14.874;2023-03-13T05:02:36;97940.41;;;4.09;100.00
66547;BME280;53400;50.364;14.874;2023-03-13T05:05:02;97939.28;;;4.17;100.00
66547;BME280;53400;50.364;14.874;2023-03-13T05:07:28;97927.59;;;4.24;100.00
66547;BME280;53400;50.364;14.874;2023-03-13T05:09:54;97924.66;;;3.96;100.00
66547;BME280;53400;50.364;14.874;2023-03-13T05:12:20;97927.03;;;3.79;100.00
66547;BME280;53400;50.364;14.874;2023-03-13T05:14:46;97918.50;;;3.77;100.00
66547;BME280;53400;50.364;14.874;2023-03-13T05:17:13;97932.59;;;3.71;100.00
66547;BME280;53400;50.364;14.874;2023-03-13T05:19:39;97926.72;;;3.68;100.00
66547;BME280;53400;50.364;14.874;2023-03-13T05:22:05;97918.13;;;3.73;100.00
66547;BME280;53400;50.364;14.874;2023-03-13T05:24:31;97918.66;;;3.82;100.00
66547;BME280;53400;50.364;14.874;2023-03-13T05:26:56;97918.41;;;3.83;100.00
66547;BME280;53400;50.364;14.874;2023-03-13T05:29:23;97910.44;;;3.90;100.00
66547;BME280;53400;50.364;14.874;2023-03-13T05:31:48;97909.63;;;4.08;100.00
66547;BME280;53400;50.364;14.874;2023-03-13T05:34:16;97912.78;;;4.17;100.00
66547;BME280;53400;50.364;14.874;2023-03-13T05:36:41;97920.28;;;4.38;100.00
66547;BME280;53400;50.364;14.874;2023-03-13T05:39:08;97921.31;;;4.55;100.00
66547;BME280;53400;50.364;14.874;2023-03-13T05:41:33;97909.44;;;4.58;100.00
66547;BME280;53400;50.364;14.874;2023-03-13T05:43:59;97894.19;;;4.72;100.00
66547;BME280;53400;50.364;14.874;2023-03-13T05:46:25;97889.00;;;4.77;100.00
66547;BME280;53400;50.364;14.874;2023-03-13T05:48:51;97900.34;;;4.54;100.00
66547;BME280;53400;50.364;14.874;2023-03-13T05:51:19;97897.44;;;5.27;100.00
66547;BME280;53400;50.364;14.874;2023-03-13T05:53:45;97891.19;;;5.22;100.00
66547;BME280;53400;50.364;14.874;2023-03-13T05:56:10;97887.28;;;4.82;100.00
66547;BME280;53400;50.364;14.874;2023-03-13T05:58:36;97884.53;;;4.59;100.00
66547;BME280;53400;50.364;14.874;2023-03-13T06:01:05;97882.50;;;4.43;100.00
66547;BME280;53400;50.364;14.874;2023-03-13T06:03:31;97881.56;;;4.37;100.00
66547;BME280;53400;50.364;14.874;2023-03-13T06:05:57;97875.84;;;4.22;100.00
66547;BME280;53400;50.364;14.874;2023-03-13T06:08:25;97871.19;;;4.35;100.00
66547;BME280;53400;50.364;14.874;2023-03-13T06:10:51;97869.44;;;4.29;100.00
66547;BME280;53400;50.364;14.874;2023-03-13T06:13:17;97869.53;;;4.53;100.00
66547;BME280;53400;50.364;14.874;2023-03-13T06:15:42;97862.25;;;4.48;100.00
66547;BME280;53400;50.364;14.874;2023-03-13T06:18:08;97868.63;;;4.59;100.00
66547;BME280;53400;50.364;14.874;2023-03-13T06:20:34;97849.16;;;4.65;100.00
66547;BME280;53400;50.364;14.874;2023-03-13T06:23:00;97849.44;;;4.75;100.00
66547;BME280;53400;50.364;14.874;2023-03-13T06:25:27;97838.06;;;4.98;100.00
66547;BME280;53400;50.364;14.874;2023-03-13T06:27:53;97844.56;;;5.26;100.00
66547;BME280;53400;50.364;14.874;2023-03-13T06:30:19;97844.22;;;5.34;100.00
66547;BME280;53400;50.364;14.874;2023-03-13T06:32:45;97839.28;;;5.49;100.00
66547;BME280;53400;50.364;14.874;2023-03-13T06:35:11;97835.09;;;5.53;100.00
66547;BME280;53400;50.364;14.874;2023-03-13T06:37:37;97839.94;;;5.68;100.00
66547;BME280;53400;50.364;14.874;2023-03-13T06:40:04;97833.47;;;5.88;100.00
66547;BME280;53400;50.364;14.874;2023-03-13T06:42:32;97833.03;;;6.03;100.00
66547;BME280;53400;50.364;14.874;2023-03-13T06:44:58;97828.47;;;6.15;100.00
66547;BME280;53400;50.364;14.874;2023-03-13T06:47:24;97835.25;;;6.23;100.00
66547;BME280;53400;50.364;14.874;2023-03-13T06:49:50;97833.03;;;6.31;100.00
66547;BME280;53400;50.364;14.874;2023-03-13T06:52:16;97842.28;;;6.29;100.00
66547;BME280;53400;50.364;14.874;2023-03-13T06:54:42;97833.97;;;6.37;100.00
66547;BME280;53400;50.364;14.874;2023-03-13T06:57:08;97835.09;;;6.41;100.00
66547;BME280;53400;50.364;14.874;2023-03-13T06:59:35;97836.47;;;6.43;100.00
66547;BME280;53400;50.364;14.874;2023-03-13T07:02:01;97830.63;;;6.58;100.00
66547;BME280;53400;50.364;14.874;2023-03-13T07:04:27;97828.47;;;6.72;100.00
66547;BME280;53400;50.364;14.874;2023-03-13T07:06:53;97828.41;;;6.67;100.00
66547;BME280;53400;50.364;14.874;2023-03-13T07:09:18;97820.69;;;6.82;100.00
66547;BME280;53400;50.364;14.874;2023-03-13T07:11:44;97820.94;;;6.98;100.00
66547;BME280;53400;50.364;14.874;2023-03-13T07:14:10;97805.75;;;6.98;99.84
66547;BME280;53400;50.364;14.874;2023-03-13T07:16:38;97814.16;;;7.07;99.73
66547;BME280;53400;50.364;14.874;2023-03-13T07:19:03;97811.09;;;6.98;100.00
66547;BME280;53400;50.364;14.874;2023-03-13T07:21:29;97809.63;;;7.07;99.99
66547;BME280;53400;50.364;14.874;2023-03-13T07:23:55;97813.75;;;7.15;99.22
66547;BME280;53400;50.364;14.874;2023-03-13T07:26:21;97816.91;;;7.29;97.65
66547;BME280;53400;50.364;14.874;2023-03-13T07:28:47;97811.00;;;7.44;98.02
66547;BME280;53400;50.364;14.874;2023-03-13T07:31:14;97809.75;;;7.51;97.10
66547;BME280;53400;50.364;14.874;2023-03-13T07:33:42;97810.72;;;7.62;95.27
66547;BME280;53400;50.364;14.874;2023-03-13T07:36:10;97809.84;;;7.56;96.04
66547;BME280;53400;50.364;14.874;2023-03-13T07:38:36;97808.50;;;7.76;94.71
66547;BME280;53400;50.364;14.874;2023-03-13T07:41:03;97808.88;;;7.85;94.18
66547;BME280;53400;50.364;14.874;2023-03-13T07:43:29;97807.28;;;7.84;94.22
66547;BME280;53400;50.364;14.874;2023-03-13T07:45:58;97802.75;;;7.84;94.71
66547;BME280;53400;50.364;14.874;2023-03-13T07:48:27;97802.44;;;8.02;93.36
66547;BME280;53400;50.364;14.874;2023-03-13T07:50:55;97801.94;;;8.05;93.66
66547;BME280;53400;50.364;14.874;2023-03-13T07:53:21;97797.38;;;8.01;92.99
66547;BME280;53400;50.364;14.874;2023-03-13T07:55:52;97787.75;;;8.00;92.25
66547;BME280;53400;50.364;14.874;2023-03-13T07:58:18;97785.22;;;8.10;90.95
66547;BME280;53400;50.364;14.874;2023-03-13T08:00:45;97772.91;;;8.09;92.09
66547;BME280;53400;50.364;14.874;2023-03-13T08:03:10;97771.63;;;8.12;91.83
66547;BME280;53400;50.364;14.874;2023-03-13T08:05:36;97760.75;;;8.18;90.82
66547;BME280;53400;50.364;14.874;2023-03-13T08:08:04;97760.88;;;8.28;90.96
66547;BME280;53400;50.364;14.874;2023-03-13T08:10:30;97753.00;;;8.39;92.28
66547;BME280;53400;50.364;14.874;2023-03-13T08:12:56;97753.75;;;8.61;90.40
66547;BME280;53400;50.364;14.874;2023-03-13T08:15:22;97748.34;;;8.56;92.20
66547;BME280;53400;50.364;14.874;2023-03-13T08:17:50;97745.25;;;8.64;91.99
66547;BME280;53400;50.364;14.874;2023-03-13T08:20:16;97752.13;;;8.60;93.23
66547;BME280;53400;50.364;14.874;2023-03-13T08:22:44;97735.59;;;8.63;93.15
66547;BME280;53400;50.364;14.874;2023-03-13T08:25:13;97731.06;;;8.64;91.64
66547;BME280;53400;50.364;14.874;2023-03-13T08:27:39;97726.06;;;8.72;93.91
66547;BME280;53400;50.364;14.874;2023-03-13T08:30:07;97728.22;;;8.70;92.45
66547;BME280;53400;50.364;14.874;2023-03-13T08:32:33;97725.03;;;8.73;93.49
66547;BME280;53400;50.364;14.874;2023-03-13T08:34:59;97729.25;;;8.69;92.65
66547;BME280;53400;50.364;14.874;2023-03-13T08:37:25;97730.06;;;8.70;93.22
66547;BME280;53400;50.364;14.874;2023-03-13T08:39:51;97723.66;;;8.71;92.41
66547;BME280;53400;50.364;14.874;2023-03-13T08:42:22;97723.84;;;8.59;94.68
66547;BME280;53400;50.364;14.874;2023-03-13T08:44:48;97727.88;;;8.62;94.97
66547;BME280;53400;50.364;14.874;2023-03-13T08:47:14;97730.25;;;8.63;95.55
66547;BME280;53400;50.364;14.874;2023-03-13T08:49:42;97730.47;;;8.57;95.26
66547;BME280;53400;50.364;14.874;2023-03-13T08:52:08;97722.81;;;8.65;94.90
66547;BME280;53400;50.364;14.874;2023-03-13T08:54:35;97717.41;;;8.55;96.33
66547;BME280;53400;50.364;14.874;2023-03-13T08:57:00;97716.84;;;8.53;98.74
66547;BME280;53400;50.364;14.874;2023-03-13T08:59:28;97714.75;;;8.55;98.85
66547;BME280;53400;50.364;14.874;2023-03-13T09:01:54;97713.88;;;8.49;100.00
66547;BME280;53400;50.364;14.874;2023-03-13T09:04:20;97710.66;;;8.47;100.00
66547;BME280;53400;50.364;14.874;2023-03-13T09:06:45;97708.84;;;8.53;99.83
66547;BME280;53400;50.364;14.874;2023-03-13T09:09:12;97702.13;;;8.50;100.00
66547;BME280;53400;50.364;14.874;2023-03-13T09:11:38;97704.81;;;8.50;100.00
66547;BME280;53400;50.364;14.874;2023-03-13T09:14:06;97710.72;;;8.58;100.00
66547;BME280;53400;50.364;14.874;2023-03-13T09:16:33;97707.25;;;8.57;100.00
66547;BME280;53400;50.364;14.874;2023-03-13T09:18:59;97707.19;;;8.47;100.00
66547;BME280;53400;50.364;14.874;2023-03-13T09:21:27;97696.28;;;8.54;100.00
66547;BME280;53400;50.364;14.874;2023-03-13T09:23:53;97702.44;;;8.54;100.00
66547;BME280;53400;50.364;14.874;2023-03-13T09:26:20;97696.22;;;8.43;100.00
66547;BME280;53400;50.364;14.874;2023-03-13T09:28:47;97690.91;;;8.48;100.00
66547;BME280;53400;50.364;14.874;2023-03-13T09:31:14;97692.56;;;8.55;100.00
66547;BME280;53400;50.364;14.874;2023-03-13T09:33:42;97685.34;;;8.50;100.00
66547;BME280;53400;50.364;14.874;2023-03-13T09:36:09;97690.09;;;8.48;100.00
66547;BME280;53400;50.364;14.874;2023-03-13T09:38:36;97694.06;;;8.40;100.00
66547;BME280;53400;50.364;14.874;2023-03-13T09:41:04;97689.59;;;8.51;100.00
66547;BME280;53400;50.364;14.874;2023-03-13T09:43:39;97689.94;;;8.33;100.00
66547;BME280;53400;50.364;14.874;2023-03-13T09:46:12;97698.00;;;8.38;100.00
66547;BME280;53400;50.364;14.874;2023-03-13T09:48:44;97700.88;;;8.31;100.00
66547;BME280;53400;50.364;14.874;2023-03-13T09:51:12;97691.03;;;8.37;100.00
66547;BME280;53400;50.364;14.874;2023-03-13T09:53:42;97687.38;;;8.43;100.00
66547;BME280;53400;50.364;14.874;2023-03-13T09:56:15;97693.91;;;8.52;100.00
66547;BME280;53400;50.364;14.874;2023-03-13T09:58:46;97680.22;;;8.43;100.00
66547;BME280;53400;50.364;14.874;2023-03-13T10:01:17;97680.00;;;8.50;100.00
66547;BME280;53400;50.364;14.874;2023-03-13T10:03:55;97671.25;;;8.60;100.00
66547;BME280;53400;50.364;14.874;2023-03-13T10:06:24;97661.13;;;8.62;100.00
66547;BME280;53400;50.364;14.874;2023-03-13T10:08:52;97672.34;;;8.64;99.77
66547;BME280;53400;50.364;14.874;2023-03-13T10:11:24;97658.81;;;8.76;98.71
66547;BME280;53400;50.364;14.874;2023-03-13T10:13:52;97644.44;;;8.77;98.32
66547;BME280;53400;50.364;14.874;2023-03-13T10:16:24;97644.97;;;8.79;99.11
66547;BME280;53400;50.364;14.874;2023-03-13T10:18:55;97651.97;;;8.90;97.94
66547;BME280;53400;50.364;14.874;2023-03-13T10:21:23;97640.47;;;8.84;96.98
66547;BME280;53400;50.364;14.874;2023-03-13T10:23:56;97640.78;;;8.93;97.03
66547;BME280;53400;50.364;14.874;2023-03-13T10:26:26;97635.16;;;8.94;97.07
66547;BME280;53400;50.364;14.874;2023-03-13T10:28:54;97643.75;;;8.96;97.68
66547;BME280;53400;50.364;14.874;2023-03-13T10:31:24;97631.75;;;8.99;96.50
66547;BME280;53400;50.364;14.874;2023-03-13T10:34:04;97625.41;;;9.10;96.40
66547;BME280;53400;50.364;14.874;2023-03-13T10:36:38;97636.69;;;9.23;96.12
66547;BME280;53400;50.364;14.874;2023-03-13T10:39:07;97627.53;;;9.08;96.35
66547;BME280;53400;50.364;14.874;2023-03-13T10:41:36;97633.72;;;9.24;96.11
66547;BME280;53400;50.364;14.874;2023-03-13T10:44:04;97638.56;;;9.27;96.23
66547;BME280;53400;50.364;14.874;2023-03-13T10:46:32;97636.19;;;9.36;96.03
66547;BME280;53400;50.364;14.874;2023-03-13T10:49:02;97619.41;;;9.40;96.64
66547;BME280;53400;50.364;14.874;2023-03-13T10:51:35;97633.28;;;9.42;96.65
66547;BME280;53400;50.364;14.874;2023-03-13T10:54:13;97634.66;;;9.55;96.60
66547;BME280;53400;50.364;14.874;2023-03-13T10:56:39;97622.91;;;9.61;95.89
66547;BME280;53400;50.364;14.874;2023-03-13T10:59:17;97627.97;;;9.58;97.10
66547;BME280;53400;50.364;14.874;2023-03-13T11:01:46;97617.31;;;9.63;96.30
66547;BME280;53400;50.364;14.874;2023-03-13T11:04:28;97622.38;;;9.64;96.11
66547;BME280;53400;50.364;14.874;2023-03-13T11:07:00;97610.13;;;9.74;96.07
66547;BME280;53400;50.364;14.874;2023-03-13T11:09:26;97607.41;;;9.63;96.97
66547;BME280;53400;50.364;14.874;2023-03-13T11:11:53;97609.06;;;9.75;96.46
66547;BME280;53400;50.364;14.874;2023-03-13T11:14:22;97604.25;;;9.82;96.28
66547;BME280;53400;50.364;14.874;2023-03-13T11:16:49;97589.81;;;9.88;95.79
66547;BME280;53400;50.364;14.874;2023-03-13T11:19:37;97590.63;;;9.94;95.48
66547;BME280;53400;50.364;14.874;2023-03-13T11:22:16;97584.50;;;9.98;95.19
66547;BME280;53400;50.364;14.874;2023-03-13T11:24:50;97574.88;;;10.07;95.25
66547;BME280;53400;50.364;14.874;2023-03-13T11:27:27;97587.19;;;10.14;95.26
66547;BME280;53400;50.364;14.874;2023-03-13T11:30:03;97577.03;;;10.10;95.47
66547;BME280;53400;50.364;14.874;2023-03-13T11:32:39;97567.66;;;10.18;94.57
66547;BME280;53400;50.364;14.874;2023-03-13T11:35:17;97563.34;;;10.22;94.21
66547;BME280;53400;50.364;14.874;2023-03-13T11:37:44;97557.75;;;10.39;94.57
66547;BME280;53400;50.364;14.874;2023-03-13T11:40:17;97559.34;;;10.55;93.11
66547;BME280;53400;50.364;14.874;2023-03-13T11:43:03;97555.59;;;10.51;92.75
66547;BME280;53400;50.364;14.874;2023-03-13T11:45:52;97560.94;;;10.62;92.26
66547;BME280;53400;50.364;14.874;2023-03-13T11:48:35;97563.09;;;10.49;92.40
66547;BME280;53400;50.364;14.874;2023-03-13T11:51:10;97571.94;;;10.65;92.42
66547;BME280;53400;50.364;14.874;2023-03-13T11:53:49;97560.16;;;10.51;91.58
66547;BME280;53400;50.364;14.874;2023-03-13T11:56:24;97565.78;;;10.54;92.03
66547;BME280;53400;50.364;14.874;2023-03-13T11:59:01;97550.47;;;10.70;91.79
66547;BME280;53400;50.364;14.874;2023-03-13T12:01:36;97541.94;;;10.63;92.12
66547;BME280;53400;50.364;14.874;2023-03-13T12:04:06;97537.63;;;10.67;91.23
66547;BME280;53400;50.364;14.874;2023-03-13T12:06:41;97530.63;;;10.76;92.35
66547;BME280;53400;50.364;14.874;2023-03-13T12:09:10;97541.56;;;10.95;91.78
66547;BME280;53400;50.364;14.874;2023-03-13T12:11:45;97540.56;;;10.76;92.54
66547;BME280;53400;50.364;14.874;2023-03-13T12:14:14;97549.31;;;11.02;90.59
66547;BME280;53400;50.364;14.874;2023-03-13T12:16:45;97555.44;;;11.08;90.42
66547;BME280;53400;50.364;14.874;2023-03-13T12:19:16;97553.84;;;11.12;90.90
66547;BME280;53400;50.364;14.874;2023-03-13T12:21:49;97557.09;;;10.98;92.34
66547;BME280;53400;50.364;14.874;2023-03-13T12:24:22;97550.59;;;11.15;91.35
66547;BME280;53400;50.364;14.874;2023-03-13T12:26:53;97544.88;;;11.32;90.24
66547;BME280;53400;50.364;14.874;2023-03-13T12:29:36;97543.09;;;11.17;91.56
66547;BME280;53400;50.364;14.874;2023-03-13T12:32:11;97553.47;;;11.34;91.62
66547;BME280;53400;50.364;14.874;2023-03-13T12:34:45;97547.63;;;11.16;91.91
66547;BME280;53400;50.364;14.874;2023-03-13T12:37:24;97552.38;;;11.35;91.55
66547;BME280;53400;50.364;14.874;2023-03-13T12:39:57;97545.63;;;11.47;90.99
66547;BME280;53400;50.364;14.874;2023-03-13T12:42:35;97535.72;;;11.43;90.21
66547;BME280;53400;50.364;14.874;2023-03-13T12:45:06;97541.88;;;11.43;91.40
66547;BME280;53400;50.364;14.874;2023-03-13T12:47:38;97528.94;;;11.56;90.45
66547;BME280;53400;50.364;14.874;2023-03-13T12:50:25;97530.59;;;11.52;90.87
66547;BME280;53400;50.364;14.874;2023-03-13T12:58:41;97522.69;;;11.70;90.14
66547;BME280;53400;50.364;14.874;2023-03-13T13:01:14;97516.59;;;11.60;91.71
66547;BME280;53400;50.364;14.874;2023-03-13T13:03:49;97519.19;;;11.70;90.77